Currently 50°F in San Bernardino, California, USA
50°F
50°F / 44°F
2 mph SE
0.00"
Saturday, January 21, 2017 9:23 AM PST

San Bernardino, California Weather Summary
Last 36 Hours

Temperature Winds Hourly Humidity Dewpoint
Time Report Norm Report Norm Max Gusts Precip. Rpt. Norm Rpt. Norm Pressure
1Sat 09:23 AM  50.0°F  58°F  2 mph SE  1 mph  4 mph  0.00"  78%  50%  43°F  38°F  29.84"
2Sat 09:22 AM  50.0°F  57°F  1 mph SE  1 mph  4 mph  ----  78%  50%  43°F  38°F  29.85"
Sat 09:00 AM  47.6°F  56°F  calm  1 mph  6 mph  0.00"  82%  52%  42°F  38°F  29.83"
Sat 08:00 AM  46.5°F  51°F  calm  1 mph  4 mph  0.00"  86%  59%  42°F  37°F  29.77"
3Sat 07:27 AM  44.4°F  49°F  1 mph SW  1 mph  4 mph  ----  86%  62%  40°F  36°F  29.75"
Sat 07:00 AM  45.3°F  49°F  calm  1 mph  7 mph  0.00"  85%  62%  41°F  36°F  29.73"
Sat 06:00 AM  46.6°F  49°F  1 mph S  1 mph  5 mph  0.00"  83%  63%  42°F  36°F  29.69"
Sat 05:00 AM  46.5°F  49°F  2 mph SW  1 mph  7 mph  0.00"  83%  63%  41°F  37°F  29.65"
Sat 04:00 AM  46.6°F  50°F  calm  1 mph  8 mph  0.00"  83%  63%  41°F  37°F  29.62"
Sat 03:00 AM  47.0°F  50°F  3 mph S  1 mph  9 mph  0.00"  85%  62%  42°F  37°F  29.60"
Sat 02:00 AM  47.2°F  51°F  calm  calm  7 mph  0.00"  86%  61%  43°F  37°F  29.56"
Sat 01:00 AM  47.8°F  52°F  calm  calm  10 mph  0.00"  88%  60%  44°F  38°F  29.53"
Sat 12:00 AM  48.3°F  53°F  3 mph SW  calm  13 mph  0.00"  87%  58%  44°F  38°F  29.51"
Fri 11:00 PM  48.9°F  54°F  4 mph SW  calm  12 mph  0.00"  91%  56%  46°F  38°F  29.51"
Fri 10:00 PM  48.6°F  56°F  calm  1 mph  10 mph  0.00"  89%  52%  45°F  38°F  29.49"
Fri 09:00 PM  49.5°F  57°F  3 mph S  1 mph  9 mph  0.00"  89%  49%  46°F  38°F  29.48"
Fri 08:00 PM  50.3°F  60°F  calm  1 mph  12 mph  0.00"  86%  46%  46°F  38°F  29.47"
Fri 07:00 PM  50.9°F  62°F  8 mph SW  2 mph  14 mph  0.00"  85%  41%  46°F  37°F  29.44"
Fri 06:00 PM  51.9°F  64°F  4 mph NW  2 mph  16 mph  0.01"  89%  38%  49°F  37°F  29.41"
Fri 05:00 PM  52.7°F  66°F  6 mph SW  2 mph  21 mph  0.00"  88%  34%  49°F  36°F  29.38"
Fri 04:00 PM  53.4°F  69°F  4 mph NW  3 mph  22 mph  0.09"  89%  31%  50°F  36°F  29.38"
Fri 03:00 PM  54.0°F  70°F  11 mph SW  3 mph  20 mph  0.01"  92%  30%  52°F  36°F  29.37"
Fri 02:00 PM  50.8°F  70°F  6 mph S  4 mph  19 mph  0.31"  96%  30%  50°F  36°F  29.39"
Fri 01:00 PM  49.8°F  69°F  2 mph N  3 mph  14 mph  0.24"  95%  31%  48°F  36°F  29.43"
Fri 12:00 PM  50.2°F  67°F  3 mph W  2 mph  17 mph  0.21"  95%  34%  49°F  37°F  29.49"
Fri 11:00 AM  50.2°F  64°F  6 mph SE  2 mph  12 mph  0.03"  96%  38%  49°F  37°F  29.57"
Fri 10:00 AM  48.9°F  60°F  5 mph S  1 mph  10 mph  0.11"  96%  45%  48°F  38°F  29.65"
Fri 09:00 AM  48.5°F  55°F  6 mph S  1 mph  10 mph  0.06"  96%  51%  47°F  37°F  29.66"
Fri 08:00 AM  48.5°F  51°F  3 mph S  1 mph  9 mph  0.07"  96%  59%  47°F  36°F  29.70"
Fri 07:00 AM  48.7°F  48°F  2 mph S  1 mph  6 mph  0.01"  97%  62%  48°F  35°F  29.71"
Fri 06:00 AM  48.7°F  48°F  1 mph S  1 mph  3 mph  0.03"  96%  62%  48°F  35°F  29.73"
Fri 05:00 AM  48.8°F  48°F  calm  1 mph  5 mph  0.04"  96%  62%  48°F  36°F  29.74"
Fri 04:00 AM  49.3°F  49°F  3 mph S  1 mph  10 mph  0.05"  96%  62%  48°F  36°F  29.73"
Fri 03:00 AM  49.5°F  49°F  2 mph SE  calm  9 mph  0.09"  96%  61%  48°F  36°F  29.78"
Fri 02:00 AM  49.4°F  50°F  1 mph SE  1 mph  7 mph  0.08"  96%  60%  48°F  36°F  29.79"
Fri 01:00 AM  49.9°F  51°F  3 mph SE  calm  6 mph  0.04"  95%  59%  48°F  37°F  29.79"
Fri 12:00 AM  49.9°F  52°F  2 mph SE  calm  5 mph  0.08"  94%  56%  48°F  36°F  29.81"
Thu 11:00 PM  51.6°F  53°F  calm  calm  9 mph  0.01"  87%  55%  48°F  37°F  29.83"
Thu 10:00 PM  53.1°F  55°F  4 mph SW  1 mph  10 mph  0.00"  78%  51%  46°F  37°F  29.85"

  1. Current weather data. No green row appears if the current weather data is also the high or low for the current day.
  2. High temperature for the current day.
  3. Low temperature for the current day.

The San Bernardino, California weather pages are a service of WeatherCurrents.
Copyright ©Sat Jan 21 09:23:10 PST 2017  WeatherCurrents. All rights reserved. - Submit questions and comments - Privacy Policy

This page automatically refreshes every 10 minutes.